Time;durP1;ratioP1;P1;durP2;ratioP2;P2;SDS_P1;SDS_P2;PMS_P1;PMS_P2;Temp;Humidity;BMP_temperature;BMP_pressure;BME280_temperature;BME280_humidity;BME280_pressure;Samples;Min_cycle;Max_cycle;Signal;HPM_P1;HPM_P2
2023/03/20 00:04:03;;;;;;;6.78;2.28;;;;;;;24.08;27.56;102031.50;21071697;28;20052;-76
2023/03/20 00:14:11;;;;;;;5.75;2.17;;;;;;;24.30;27.54;102078.81;21067473;28;20123;-74
2023/03/20 00:24:14;;;;;;;6.55;2.60;;;;;;;24.07;27.92;102063.38;21079687;28;20029;-73
2023/03/20 00:34:22;;;;;;;5.50;2.30;;;;;;;24.31;28.48;102105.66;21071028;28;20044;-75
2023/03/20 00:44:25;;;;;;;;;;;;;;;24.32;29.02;102098.94;21061471;28;20051;-72
2023/03/20 00:54:27;;;;;;;7.95;5.13;;;;;;;24.17;29.05;102078.50;21062001;28;20271;-71
2023/03/20 01:04:37;;;;;;;9.48;6.10;;;;;;;24.10;29.15;102092.75;21061604;28;20071;-72
2023/03/20 01:14:39;;;;;;;8.88;5.65;;;;;;;24.24;29.22;102155.44;21057393;28;20047;-70
2023/03/20 01:24:41;;;;;;;8.77;5.57;;;;;;;24.24;29.48;102185.38;21070347;28;20567;-71
2023/03/20 01:34:42;;;;;;;10.65;5.63;;;;;;;23.83;29.48;102138.50;21064678;28;20637;-71
2023/03/20 01:44:47;;;;;;;11.25;4.95;;;;;;;24.27;29.23;102208.03;21050154;28;20033;-71
2023/03/20 01:54:49;;;;;;;7.00;4.47;;;;;;;24.24;28.73;102230.13;21059238;28;20053;-70
2023/03/20 02:04:55;;;;;;;8.15;3.90;;;;;;;24.10;28.63;102224.19;21041042;28;20651;-71
2023/03/20 02:14:57;;;;;;;9.25;4.28;;;;;;;24.16;28.35;102239.03;21068205;28;20047;-71
2023/03/20 02:25:20;;;;;;;7.13;3.30;;;;;;;24.16;28.36;102244.63;21071285;28;20093;-70
2023/03/20 02:35:49;;;;;;;4.65;3.60;;;;;;;24.09;27.85;102256.03;21066302;28;20024;-71
2023/03/20 02:46:18;;;;;;;5.00;3.33;;;;;;;24.02;27.54;102269.44;21087434;28;20074;-72
2023/03/20 02:56:25;;;;;;;6.47;3.17;;;;;;;24.00;28.61;102277.25;21068609;28;20077;-71
2023/03/20 03:06:30;;;;;;;8.38;3.35;;;;;;;23.96;29.62;102281.69;21085565;28;20553;-70
2023/03/20 03:16:36;;;;;;;6.45;2.90;;;;;;;23.89;30.34;102297.88;21072138;28;20044;-71
2023/03/20 03:26:41;;;;;;;5.53;2.80;;;;;;;23.94;30.43;102297.91;21066017;28;20036;-71
2023/03/20 03:36:49;;;;;;;4.90;3.00;;;;;;;23.83;29.74;102309.00;21066286;28;20057;-71
2023/03/20 03:46:56;;;;;;;3.72;2.50;;;;;;;23.80;28.99;102315.13;21085558;28;20469;-71
2023/03/20 03:57:00;;;;;;;4.60;2.35;;;;;;;23.88;29.05;102299.81;21085522;28;20105;-72
2023/03/20 04:07:01;;;;;;;8.30;2.40;;;;;;;23.79;29.38;102274.31;21086284;28;20052;-71
2023/03/20 04:17:05;;;;;;;5.65;2.53;;;;;;;23.87;29.53;102292.56;21086213;28;20391;-70
2023/03/20 04:27:10;;;;;;;6.20;1.90;;;;;;;23.80;29.88;102275.16;21085043;28;20101;-68
2023/03/20 04:37:14;;;;;;;7.00;1.92;;;;;;;23.96;29.98;102318.03;21083564;28;20043;-70
2023/03/20 04:47:16;;;;;;;7.55;2.10;;;;;;;23.83;30.22;102314.59;21082003;28;20032;-70
2023/03/20 04:57:17;;;;;;;6.90;1.90;;;;;;;23.96;30.02;102323.63;21085324;28;20090;-70
2023/03/20 05:07:21;;;;;;;5.90;2.22;;;;;;;24.11;30.08;102351.72;21073806;28;20400;-68
2023/03/20 05:17:23;;;;;;;6.10;1.75;;;;;;;24.13;29.73;102346.69;21077801;28;20048;-69
2023/03/20 05:27:25;;;;;;;3.65;1.50;;;;;;;24.07;28.92;102358.94;21079027;28;20032;-69
2023/03/20 05:37:26;;;;;;;6.95;1.63;;;;;;;24.02;28.78;102379.34;21077123;28;20052;-70
2023/03/20 05:47:27;;;;;;;7.60;1.80;;;;;;;23.80;28.25;102354.25;21076301;28;20036;-70
2023/03/20 05:57:29;;;;;;;3.45;1.58;;;;;;;23.88;28.04;102382.84;21073936;28;20392;-69
2023/03/20 06:07:30;;;;;;;5.10;1.60;;;;;;;23.88;28.07;102391.25;21078551;28;20047;-69
2023/03/20 06:17:32;;;;;;;3.28;1.40;;;;;;;23.82;28.02;102390.31;21075829;28;20044;-69
2023/03/20 06:27:33;;;;;;;2.45;1.38;;;;;;;23.68;27.68;102395.50;21075604;28;20074;-70
2023/03/20 06:37:37;;;;;;;1.55;1.00;;;;;;;23.69;27.69;102399.19;21074813;28;20040;-70
2023/03/20 06:47:39;;;;;;;2.53;0.90;;;;;;;23.69;27.72;102407.56;21073114;28;20040;-72
2023/03/20 06:57:40;;;;;;;1.20;1.00;;;;;;;23.42;27.03;102374.00;21072893;28;20109;-72
2023/03/20 07:07:42;;;;;;;2.55;1.33;;;;;;;23.59;27.42;102419.41;21073232;28;20044;-69
2023/03/20 07:17:43;;;;;;;1.23;1.15;;;;;;;23.53;27.33;102412.09;21072947;28;20052;-70
2023/03/20 07:27:49;;;;;;;2.22;1.00;;;;;;;23.46;26.23;102433.81;21093380;28;20088;-70
2023/03/20 07:37:51;;;;;;;1.27;1.05;;;;;;;22.91;26.74;102368.69;21099931;28;20105;-71
2023/03/20 07:47:52;;;;;;;2.22;1.30;;;;;;;23.27;26.18;102433.31;21083672;28;20036;-70
2023/03/20 07:57:53;;;;;;;1.38;0.93;;;;;;;23.15;26.15;102413.91;21116535;28;20101;-70
2023/03/20 08:07:55;;;;;;;1.60;1.20;;;;;;;23.27;26.06;102427.72;21085679;28;20048;-70
2023/03/20 08:17:57;;;;;;;1.52;1.08;;;;;;;23.24;25.81;102440.28;21079684;28;20105;-71
2023/03/20 08:28:00;;;;;;;1.58;1.13;;;;;;;23.19;25.62;102434.63;21083904;28;20560;-71
2023/03/20 08:38:02;;;;;;;1.13;0.98;;;;;;;23.17;25.69;102439.63;21076146;28;20056;-70
2023/03/20 08:48:04;;;;;;;1.38;0.88;;;;;;;23.14;26.06;102456.03;21081690;28;20101;-70
2023/03/20 08:58:05;;;;;;;1.40;1.15;;;;;;;23.10;25.86;102455.75;21057978;28;20495;-69
2023/03/20 09:08:06;;;;;;;1.20;0.90;;;;;;;23.10;26.17;102461.31;21080700;28;20032;-69
2023/03/20 09:18:11;;;;;;;1.70;1.20;;;;;;;22.82;25.82;102426.88;21079791;28;20040;-70
2023/03/20 09:28:12;;;;;;;1.98;1.25;;;;;;;23.10;26.09;102468.88;21079720;28;20425;-70
2023/03/20 09:38:14;;;;;;;0.82;0.82;;;;;;;22.99;26.02;102463.13;21079031;28;20047;-70
2023/03/20 09:48:35;;;;;;;3.50;1.00;;;;;;;23.03;25.80;102485.78;21062551;28;20086;-70
2023/03/20 09:58:39;;;;;;;2.03;1.20;;;;;;;23.05;26.10;102483.59;21077764;28;20052;-70
2023/03/20 10:08:41;;;;;;;1.30;1.20;;;;;;;22.89;26.07;102470.50;21100119;28;20051;-70
2023/03/20 10:18:55;;;;;;;1.27;1.17;;;;;;;23.02;26.26;102512.03;21076080;28;20048;-70
2023/03/20 10:29:05;;;;;;;0.95;0.88;;;;;;;23.02;26.08;102523.19;21075493;28;20052;-70
2023/03/20 10:39:40;;;;;;;1.80;1.00;;;;;;;22.97;26.07;102534.28;21075431;28;20040;-70
2023/03/20 10:50:02;;;;;;;1.35;1.13;;;;;;;22.93;26.04;102545.13;21074157;28;20040;-69
2023/03/20 11:00:09;;;;;;;2.33;1.33;;;;;;;22.88;25.51;102574.88;21076028;28;20074;-69
2023/03/20 11:10:15;;;;;;;1.77;1.30;;;;;;;22.74;25.39;102574.38;21090258;28;20406;-70
2023/03/20 11:20:17;;;;;;;1.27;1.17;;;;;;;22.73;25.54;102579.13;21088787;28;20773;-70
2023/03/20 11:30:18;;;;;;;1.90;1.38;;;;;;;22.91;25.47;102603.16;21082608;28;20106;-70
2023/03/20 11:40:29;;;;;;;1.65;1.30;;;;;;;22.95;25.42;102620.22;21089801;28;20044;-70
2023/03/20 11:50:37;;;;;;;1.77;1.10;;;;;;;22.98;25.15;102644.84;21090365;28;20048;-70
2023/03/20 12:00:46;;;;;;;1.95;1.40;;;;;;;22.80;24.96;102621.63;21089074;28;20109;-70
2023/03/20 12:10:57;;;;;;;1.50;1.33;;;;;;;22.75;24.72;102637.47;21087527;28;20028;-69
2023/03/20 12:21:09;;;;;;;1.85;1.38;;;;;;;22.87;24.95;102662.50;21087215;28;20391;-70
2023/03/20 12:31:31;;;;;;;1.58;1.45;;;;;;;22.86;24.81;102671.97;21077378;28;20125;-70
2023/03/20 12:42:13;;;;;;;2.08;1.23;;;;;;;22.96;27.97;102683.38;21082689;28;20044;-70
2023/03/20 12:52:25;;;;;;;13.85;1.85;;;;;;;23.12;27.71;102687.25;21059702;28;20044;-73
2023/03/20 13:02:53;;;;;;;9.40;1.75;;;;;;;23.08;27.63;102698.91;21085526;28;20037;-72
2023/03/20 13:13:04;;;;;;;8.00;1.90;;;;;;;23.07;27.05;102713.13;21058963;28;20499;-71
2023/03/20 13:23:17;;;;;;;3.95;1.50;;;;;;;23.03;26.87;102718.38;21078567;28;20399;-69
2023/03/20 13:33:55;;;;;;;2.90;1.63;;;;;;;23.03;26.87;102714.75;21078666;28;20048;-69
2023/03/20 13:44:03;;;;;;;5.97;1.70;;;;;;;22.90;26.59;102673.19;21077530;28;20056;-69
2023/03/20 13:54:42;;;;;;;3.00;1.33;;;;;;;23.13;25.79;102698.16;21076843;28;20121;-69
2023/03/20 14:04:43;;;;;;;2.80;1.65;;;;;;;23.24;24.79;102708.41;21075410;28;20100;-69
2023/03/20 14:14:55;;;;;;;3.28;1.55;;;;;;;23.23;24.89;102712.31;21076164;28;20044;-69
2023/03/20 14:24:59;;;;;;;1.95;1.35;;;;;;;23.20;25.08;102717.53;21076016;28;20063;-69
2023/03/20 14:35:12;;;;;;;2.83;1.65;;;;;;;23.23;26.46;102712.31;21077428;28;20053;-69
2023/03/20 14:45:34;;;;;;;2.70;1.48;;;;;;;23.22;26.54;102710.59;21092757;28;20052;-69
2023/03/20 14:55:56;;;;;;;2.70;1.33;;;;;;;23.27;26.23;102695.84;21091514;28;20047;-69
2023/03/20 15:06:01;;;;;;;3.22;1.50;;;;;;;23.34;25.91;102700.19;21090697;28;20039;-69
2023/03/20 15:16:10;;;;;;;2.72;1.20;;;;;;;23.23;26.22;102655.56;21089159;28;20449;-69
2023/03/20 15:26:17;;;;;;;3.50;1.35;;;;;;;23.40;25.91;102670.38;21087524;28;20040;-70
2023/03/20 15:36:22;;;;;;;1.50;1.20;;;;;;;23.29;25.61;102641.44;21087897;28;20040;-70
2023/03/20 15:46:27;;;;;;;1.65;1.50;;;;;;;23.44;25.97;102659.53;21086534;28;20092;-70
2023/03/20 15:56:28;;;;;;;2.33;1.70;;;;;;;23.43;26.07;102649.47;21085813;28;20036;-70
2023/03/20 16:06:30;;;;;;;2.83;1.55;;;;;;;23.47;25.82;102640.31;21085572;28;20044;-70
2023/03/20 16:16:36;;;;;;;2.17;1.40;;;;;;;23.48;25.81;102613.22;21084990;28;20420;-69
2023/03/20 16:26:43;;;;;;;1.48;1.38;;;;;;;23.49;25.96;102593.38;21084011;28;20430;-69
2023/03/20 16:36:52;;;;;;;1.70;1.27;;;;;;;23.50;26.21;102588.63;21079723;28;20441;-69
2023/03/20 16:47:01;;;;;;;2.08;1.35;;;;;;;23.51;26.21;102581.97;21082255;28;20033;-69
2023/03/20 16:57:08;;;;;;;1.67;1.08;;;;;;;23.54;26.48;102571.09;21080419;28;20065;-69
2023/03/20 17:07:22;;;;;;;1.58;1.20;;;;;;;23.51;26.74;102548.44;21080058;28;20043;-69
2023/03/20 17:17:25;;;;;;;2.15;1.45;;;;;;;23.48;26.53;102518.22;21079320;28;20494;-70
2023/03/20 17:27:28;;;;;;;1.83;1.40;;;;;;;23.40;26.27;102499.13;21078702;28;20066;-69
2023/03/20 17:37:30;;;;;;;1.83;1.25;;;;;;;23.59;25.87;102532.06;21077938;28;20054;-68
2023/03/20 17:47:31;;;;;;;1.50;1.23;;;;;;;23.56;25.83;102506.59;21077731;28;20042;-69
2023/03/20 17:57:35;;;;;;;2.90;1.40;;;;;;;23.54;26.19;102495.66;21077142;28;20040;-69
2023/03/20 18:07:37;;;;;;;2.90;1.08;;;;;;;23.46;26.01;102461.75;21076105;28;20044;-69
2023/03/20 18:17:38;;;;;;;1.60;1.10;;;;;;;23.52;26.38;102467.16;21076020;28;20032;-68
2023/03/20 18:27:41;;;;;;;1.50;1.30;;;;;;;23.47;26.18;102438.31;21074678;28;20058;-69
2023/03/20 18:37:43;;;;;;;2.55;1.40;;;;;;;23.41;26.56;102440.19;21075004;28;20078;-70
2023/03/20 18:47:44;;;;;;;2.50;1.25;;;;;;;23.34;26.73;102422.78;21074998;28;20044;-70
2023/03/20 18:57:49;;;;;;;2.22;1.08;;;;;;;23.36;26.78;102419.72;21073959;28;20116;-69
2023/03/20 19:07:55;;;;;;;3.15;1.40;;;;;;;23.40;26.84;102416.16;21073946;28;20070;-68
2023/03/20 19:17:56;;;;;;;1.88;1.45;;;;;;;23.44;26.44;102388.53;21074005;28;20391;-69
2023/03/20 19:28:01;;;;;;;1.30;1.05;;;;;;;23.51;26.85;102400.34;21086044;28;20043;-69
2023/03/20 19:38:03;;;;;;;1.30;1.13;;;;;;;23.56;26.41;102392.88;21089055;28;20750;-68
2023/03/20 19:48:31;;;;;;;1.35;1.20;;;;;;;23.49;26.49;102383.00;21087156;28;20040;-67
2023/03/20 19:58:33;;;;;;;2.23;1.30;;;;;;;23.57;26.57;102365.75;21085824;28;20036;-68
2023/03/20 20:08:36;;;;;;;1.45;1.13;;;;;;;23.60;26.12;102376.41;21085550;28;20552;-69
2023/03/20 20:18:37;;;;;;;1.33;1.02;;;;;;;23.38;26.48;102333.72;21084232;28;20048;-69
2023/03/20 20:28:38;;;;;;;1.27;0.98;;;;;;;23.59;26.37;102358.81;21083245;28;20036;-69
2023/03/20 20:38:40;;;;;;;4.15;1.25;;;;;;;23.64;26.47;102354.34;21083121;28;20058;-68
2023/03/20 20:48:41;;;;;;;1.20;1.10;;;;;;;23.63;26.45;102342.34;21082626;28;20034;-67
2023/03/20 20:58:43;;;;;;;1.15;0.82;;;;;;;23.65;26.28;102340.16;21081793;28;20051;-68
2023/03/20 21:08:44;;;;;;;1.65;1.38;;;;;;;23.56;26.00;102336.13;21080911;28;20109;-69
2023/03/20 21:18:46;;;;;;;1.77;1.02;;;;;;;23.53;25.86;102326.31;21080494;28;20043;-70
2023/03/20 21:28:48;;;;;;;2.55;1.13;;;;;;;23.47;25.68;102332.97;21078969;28;20066;-71
2023/03/20 21:38:49;;;;;;;2.97;1.30;;;;;;;23.41;25.51;102327.59;21075296;28;20040;-72
2023/03/20 21:48:50;;;;;;;3.10;1.30;;;;;;;23.37;25.88;102332.91;21073831;28;20044;-70
2023/03/20 21:58:52;;;;;;;7.18;1.55;;;;;;;23.30;26.21;102338.66;21073467;28;20052;-70
2023/03/20 22:08:53;;;;;;;1.48;1.10;;;;;;;23.18;26.02;102317.59;21078936;28;20159;-71
2023/03/20 22:18:55;;;;;;;5.13;1.48;;;;;;;23.22;25.72;102330.75;21041483;28;20040;-71
2023/03/20 22:28:56;;;;;;;2.35;1.30;;;;;;;23.22;26.17;102336.34;21074659;28;20036;-71
2023/03/20 22:39:00;;;;;;;3.00;1.20;;;;;;;23.09;26.16;102320.00;21074257;28;20036;-71
2023/03/20 22:49:02;;;;;;;2.22;1.20;;;;;;;23.18;26.14;102335.19;21073952;28;20044;-70
2023/03/20 22:59:06;;;;;;;2.78;1.35;;;;;;;23.12;26.07;102336.25;21072790;28;20207;-71
2023/03/20 23:09:10;;;;;;;4.25;1.60;;;;;;;22.96;26.38;102321.28;21072797;28;20471;-71
2023/03/20 23:19:15;;;;;;;1.58;1.15;;;;;;;22.91;26.59;102311.97;21087281;28;20051;-71
2023/03/20 23:29:19;;;;;;;2.53;1.10;;;;;;;22.94;26.37;102323.47;21088105;28;20063;-70
2023/03/20 23:39:21;;;;;;;7.00;2.15;;;;;;;23.08;26.81;102346.25;21073050;28;20479;-72
2023/03/20 23:49:22;;;;;;;7.07;1.40;;;;;;;22.98;26.62;102332.19;21076721;28;20036;-71
2023/03/20 23:59:23;;;;;;;3.10;1.42;;;;;;;23.13;26.59;102365.00;21071377;28;20044;-70
